Marlboro, Canada
Current Conditions -  °F | °C
As of 9:11 PM on Wednesday 26 Nov 2014 (Local Time) from CYET Reporting Station
Light Snow Light Snow  
Wind Chill: 10°   Ceiling: 3700
Heat Index: 19°   Visibility: 2.5mi
Dew Point: 19°   Wind: 7mph
Humidity: 100%   Direction: 50°NE
Pressure: 30.01"   Gusts: NA
Location:  53.55°N, 116.77°W
Report Text: CYET 270411Z AUTO 05006KT 2 1/2SM -SN OVC037 M07/M07 A3001 RMK SLP222
Loading
Personal Weather Stations






























Interactive Weather Map New forecast layout! Learn more

10-Day Weather Forecast

Advertisements
Track Severe Weather on mobile